createdAt,value
2024-02-21T00:00:39.340Z,7.23
2024-02-21T00:03:05.867Z,7.26
2024-02-21T00:05:32.521Z,7.33
2024-02-21T00:08:01.139Z,7.31
2024-02-21T00:10:27.678Z,7.33
2024-02-21T00:12:54.122Z,7.32
2024-02-21T00:15:20.599Z,7.31
2024-02-21T00:17:47.052Z,7.26
2024-02-21T00:20:13.702Z,7.29
2024-02-21T00:22:40.142Z,7.33
2024-02-21T00:25:07.225Z,7.32
2024-02-21T00:27:33.724Z,7.30
2024-02-21T00:30:00.305Z,7.36
2024-02-21T00:32:26.889Z,7.33
2024-02-21T00:34:53.417Z,7.35
2024-02-21T00:37:19.894Z,7.40
2024-02-21T00:39:46.372Z,7.40
2024-02-21T00:42:12.874Z,7.41
2024-02-21T00:44:39.365Z,7.43
2024-02-21T00:47:05.949Z,7.41
2024-02-21T00:49:32.444Z,7.50
2024-02-21T00:51:58.941Z,7.47
2024-02-21T00:54:26.018Z,7.49
2024-02-21T00:56:54.742Z,7.46
2024-02-21T00:59:21.232Z,7.53
2024-02-21T01:01:47.687Z,7.51
2024-02-21T01:04:14.340Z,7.50
2024-02-21T01:06:43.900Z,7.48
2024-02-21T01:09:10.508Z,7.44
2024-02-21T01:11:37.167Z,7.48
2024-02-21T01:14:03.891Z,7.52
2024-02-21T01:16:30.412Z,7.49
2024-02-21T01:18:56.947Z,7.53
2024-02-21T01:21:23.385Z,7.57
2024-02-21T01:23:49.771Z,7.52
2024-02-21T01:26:16.604Z,7.55
2024-02-21T01:28:43.286Z,7.62
2024-02-21T01:31:09.731Z,7.59
2024-02-21T01:33:36.204Z,7.55
2024-02-21T01:36:09.198Z,7.59
2024-02-21T01:38:36.045Z,7.66
2024-02-21T01:41:02.757Z,7.67
2024-02-21T01:43:29.261Z,7.63
2024-02-21T01:45:58.889Z,7.65
2024-02-21T01:48:26.393Z,7.68
2024-02-21T01:50:55.771Z,7.81
2024-02-21T01:53:24.620Z,7.73
2024-02-21T01:55:51.215Z,7.70
2024-02-21T01:58:19.660Z,7.66
2024-02-21T02:00:48.931Z,7.66
2024-02-21T02:03:17.980Z,7.53
2024-02-21T02:05:48.748Z,7.51
2024-02-21T02:08:16.694Z,7.50
2024-02-21T02:10:43.857Z,7.35
2024-02-21T02:13:10.759Z,7.34
2024-02-21T02:15:45.205Z,7.45
2024-02-21T02:18:13.298Z,7.44
2024-02-21T02:20:40.821Z,7.33
2024-02-21T02:23:23.179Z,7.38
2024-02-21T02:25:52.371Z,7.40
2024-02-21T02:28:19.271Z,7.38
2024-02-21T02:30:46.063Z,7.31
2024-02-21T02:33:12.686Z,7.31
2024-02-21T02:35:39.198Z,7.35
2024-02-21T02:38:05.774Z,7.36
2024-02-21T02:40:34.205Z,7.40
2024-02-21T02:43:00.834Z,7.41
2024-02-21T02:45:27.769Z,7.41
2024-02-21T02:47:55.550Z,7.46
2024-02-21T02:50:22.096Z,7.39
2024-02-21T02:52:48.604Z,7.37
2024-02-21T02:55:15.482Z,7.34
2024-02-21T02:57:42.883Z,7.37
2024-02-21T03:00:11.848Z,7.35
2024-02-21T03:02:40.631Z,7.41
2024-02-21T03:05:21.739Z,7.39
2024-02-21T03:07:50.075Z,7.39
2024-02-21T03:10:20.015Z,7.48
2024-02-21T03:12:47.038Z,7.42
2024-02-21T03:15:15.001Z,7.41
2024-02-21T03:17:42.210Z,7.44
2024-02-21T03:20:12.248Z,7.39
2024-02-21T03:22:40.410Z,7.50
2024-02-21T03:25:08.065Z,7.44
2024-02-21T03:27:34.767Z,7.43
2024-02-21T03:30:01.326Z,7.35
2024-02-21T03:32:29.505Z,7.34
2024-02-21T03:34:56.121Z,7.41
2024-02-21T03:37:22.692Z,7.31
2024-02-21T03:39:49.315Z,7.36
2024-02-21T03:42:15.881Z,7.36
2024-02-21T03:44:42.335Z,7.33
2024-02-21T03:47:11.613Z,7.30
2024-02-21T03:49:38.847Z,7.37
2024-02-21T03:52:05.708Z,7.34
2024-02-21T03:54:32.137Z,7.37
2024-02-21T03:56:58.636Z,7.39
2024-02-21T03:59:25.921Z,7.31
2024-02-21T04:01:53.859Z,7.46
2024-02-21T04:04:21.645Z,7.45
2024-02-21T04:06:52.149Z,7.50
2024-02-21T04:09:19.111Z,7.44
2024-02-21T04:11:45.957Z,7.51
2024-02-21T04:14:12.960Z,7.39
2024-02-21T04:16:40.646Z,7.42
2024-02-21T04:19:07.630Z,7.42
2024-02-21T04:21:34.274Z,7.46
2024-02-21T04:24:01.066Z,7.45
2024-02-21T04:26:27.493Z,7.49
2024-02-21T04:28:54.095Z,7.46
2024-02-21T04:31:20.673Z,7.41
2024-02-21T04:33:47.436Z,7.40
2024-02-21T04:36:13.972Z,7.52
2024-02-21T04:38:41.782Z,7.56
2024-02-21T04:41:09.114Z,7.54
2024-02-21T04:43:35.848Z,7.50
2024-02-21T04:46:02.638Z,7.37
2024-02-21T04:48:29.085Z,7.49
2024-02-21T04:50:55.662Z,7.41
2024-02-21T04:53:22.238Z,7.31
2024-02-21T04:55:48.721Z,7.33
2024-02-21T04:58:15.161Z,7.25
2024-02-21T05:00:41.660Z,7.32
2024-02-21T05:03:08.293Z,7.34
2024-02-21T05:05:34.787Z,7.33
2024-02-21T05:08:01.402Z,7.32
2024-02-21T05:10:28.147Z,7.33
2024-02-21T05:12:54.564Z,7.38
2024-02-21T05:15:21.029Z,7.34
2024-02-21T05:17:47.559Z,7.34
2024-02-21T05:20:14.167Z,7.27
2024-02-21T05:22:40.666Z,7.28
2024-02-21T05:25:07.891Z,7.41
2024-02-21T05:27:34.453Z,7.39
2024-02-21T05:30:00.862Z,7.40
2024-02-21T05:32:27.825Z,7.48
2024-02-21T05:34:54.461Z,7.48
2024-02-21T05:37:21.095Z,7.52
2024-02-21T05:39:47.601Z,7.52
2024-02-21T05:42:14.019Z,7.47
2024-02-21T05:44:40.472Z,7.32
2024-02-21T05:47:11.054Z,7.36
2024-02-21T05:49:38.132Z,7.43
2024-02-21T05:52:07.066Z,7.49
2024-02-21T05:54:33.798Z,7.52
2024-02-21T05:57:00.429Z,7.51
2024-02-21T05:59:26.937Z,7.46
2024-02-21T06:01:59.529Z,7.51
2024-02-21T06:04:26.286Z,7.51
2024-02-21T06:06:52.841Z,7.62
2024-02-21T06:09:19.341Z,7.57
2024-02-21T06:11:47.517Z,7.61
2024-02-21T06:14:14.164Z,7.62
2024-02-21T06:16:40.703Z,7.58
2024-02-21T06:19:10.065Z,7.57
2024-02-21T06:21:37.678Z,7.48
2024-02-21T06:24:05.032Z,7.56
2024-02-21T06:26:31.494Z,7.55
2024-02-21T06:28:58.495Z,7.52
2024-02-21T06:31:25.149Z,7.53
2024-02-21T06:33:51.810Z,7.58
2024-02-21T06:36:18.289Z,7.56
2024-02-21T06:38:44.894Z,7.57
2024-02-21T06:41:19.768Z,7.54
2024-02-21T06:43:50.125Z,7.50
2024-02-21T06:46:30.364Z,7.46
2024-02-21T06:48:58.366Z,7.48
2024-02-21T06:51:26.076Z,7.46
2024-02-21T06:53:52.684Z,7.49
2024-02-21T06:56:19.243Z,7.42
2024-02-21T06:58:46.021Z,7.49
2024-02-21T07:01:12.932Z,7.46
2024-02-21T07:03:39.400Z,7.49
2024-02-21T07:06:06.094Z,7.46
2024-02-21T07:08:32.662Z,7.46
2024-02-21T07:10:59.238Z,7.47
2024-02-21T07:13:25.807Z,7.50
2024-02-21T07:15:52.216Z,7.50
2024-02-21T07:18:18.839Z,7.45
2024-02-21T07:20:45.339Z,7.45
2024-02-21T07:23:11.825Z,7.44
2024-02-21T07:25:38.437Z,7.49
2024-02-21T07:28:05.447Z,7.53
2024-02-21T07:30:32.099Z,7.57
2024-02-21T07:32:58.540Z,7.52
2024-02-21T07:35:25.124Z,7.49
2024-02-21T07:37:51.581Z,7.52
2024-02-21T07:40:18.557Z,7.44
2024-02-21T07:42:48.535Z,7.41
2024-02-21T07:45:19.359Z,7.41
2024-02-21T07:47:45.812Z,7.43
2024-02-21T07:50:12.405Z,7.44
2024-02-21T07:52:38.972Z,7.40
2024-02-21T07:55:05.795Z,7.48
2024-02-21T07:57:32.234Z,7.39
2024-02-21T07:59:58.782Z,7.48
2024-02-21T08:02:25.225Z,7.50
2024-02-21T08:04:51.710Z,7.48
2024-02-21T08:07:18.238Z,7.48
2024-02-21T08:09:44.720Z,7.50
2024-02-21T08:12:11.256Z,7.50
2024-02-21T08:14:37.804Z,7.52
2024-02-21T08:17:05.121Z,7.52
2024-02-21T08:19:32.098Z,7.59
2024-02-21T08:21:58.590Z,7.62
2024-02-21T08:24:25.023Z,7.66
2024-02-21T08:26:51.683Z,7.71
2024-02-21T08:29:18.132Z,7.69
2024-02-21T08:31:44.652Z,7.68
2024-02-21T08:34:11.206Z,7.71
2024-02-21T08:36:37.669Z,7.74
2024-02-21T08:39:04.826Z,7.74
2024-02-21T08:41:48.158Z,7.72
2024-02-21T08:44:24.681Z,7.67
2024-02-21T08:46:51.220Z,7.74
2024-02-21T08:49:17.779Z,7.77
2024-02-21T08:51:44.927Z,7.75
2024-02-21T08:54:11.424Z,7.78
2024-02-21T08:56:37.966Z,7.67
2024-02-21T08:59:05.298Z,7.75
2024-02-21T09:01:31.992Z,7.76
2024-02-21T09:03:59.305Z,7.77
2024-02-21T09:06:25.779Z,7.76
2024-02-21T09:08:52.242Z,7.87
2024-02-21T09:11:18.842Z,7.96
2024-02-21T09:13:45.472Z,8.04
2024-02-21T09:16:12.035Z,7.99
2024-02-21T09:18:38.471Z,7.97
2024-02-21T09:21:05.450Z,8.00
2024-02-21T09:23:32.841Z,8.02
2024-02-21T09:26:01.873Z,8.02
2024-02-21T09:28:28.675Z,7.93
2024-02-21T09:30:55.285Z,7.98
2024-02-21T09:33:30.192Z,8.03
2024-02-21T09:35:58.913Z,8.05
2024-02-21T09:38:25.396Z,8.04
2024-02-21T09:41:03.872Z,8.02
2024-02-21T09:43:30.563Z,8.02
2024-02-21T09:45:59.432Z,8.09
2024-02-21T09:49:00.520Z,8.01
2024-02-21T09:51:31.625Z,8.05
2024-02-21T09:54:07.326Z,8.11
2024-02-21T09:56:41.776Z,8.09
2024-02-21T09:59:08.924Z,8.18
2024-02-21T10:01:35.884Z,8.20
2024-02-21T10:04:04.258Z,8.22
2024-02-21T10:06:31.021Z,8.31
2024-02-21T10:08:57.527Z,8.21
2024-02-21T10:11:25.514Z,8.27
2024-02-21T10:13:52.495Z,8.24
2024-02-21T10:16:19.125Z,8.28
2024-02-21T10:18:45.629Z,8.23
2024-02-21T10:21:12.021Z,8.26
2024-02-21T10:23:45.805Z,8.27
2024-02-21T10:26:12.872Z,8.19
2024-02-21T10:28:46.954Z,8.21
2024-02-21T10:31:28.413Z,8.19
2024-02-21T10:33:59.853Z,8.20
2024-02-21T10:36:26.988Z,8.16
2024-02-21T10:38:55.892Z,8.13
2024-02-21T10:41:23.579Z,8.12
2024-02-21T10:43:56.119Z,8.15
2024-02-21T10:46:25.456Z,8.23
2024-02-21T10:49:08.503Z,8.13
2024-02-21T10:51:36.542Z,8.25
2024-02-21T10:54:25.845Z,8.27
2024-02-21T10:56:53.013Z,8.28
2024-02-21T10:59:20.623Z,8.22
2024-02-21T11:01:47.216Z,8.37
2024-02-21T11:04:14.368Z,8.33
2024-02-21T11:06:42.752Z,8.33
2024-02-21T11:09:11.254Z,8.32
2024-02-21T11:11:47.061Z,8.37
2024-02-21T11:14:20.987Z,8.42
2024-02-21T11:16:48.426Z,8.43
2024-02-21T11:19:23.678Z,8.49
2024-02-21T11:21:51.097Z,8.43
2024-02-21T11:24:34.212Z,8.51
2024-02-21T11:27:11.138Z,8.49
2024-02-21T11:29:43.485Z,8.46
2024-02-21T11:32:16.085Z,8.56
2024-02-21T11:34:53.554Z,8.59
2024-02-21T11:37:20.101Z,8.60
2024-02-21T11:39:46.803Z,8.58
2024-02-21T11:42:13.842Z,8.55
2024-02-21T11:44:40.981Z,8.56
2024-02-21T11:47:08.613Z,8.53
2024-02-21T11:49:47.303Z,8.48
2024-02-21T11:52:16.814Z,8.48
2024-02-21T11:54:44.017Z,8.49
2024-02-21T11:57:12.496Z,8.52
2024-02-21T11:59:41.425Z,8.54
2024-02-21T12:02:08.776Z,8.55
2024-02-21T12:04:35.492Z,8.58
2024-02-21T12:07:04.897Z,8.51
2024-02-21T12:09:31.689Z,8.56
2024-02-21T12:12:04.203Z,8.51
2024-02-21T12:14:31.740Z,8.55
2024-02-21T12:16:59.551Z,8.60
2024-02-21T12:19:26.489Z,8.57
2024-02-21T12:21:55.829Z,8.59
2024-02-21T12:24:27.075Z,8.63
2024-02-21T12:26:54.434Z,8.55
2024-02-21T12:29:22.055Z,8.62
2024-02-21T12:31:48.777Z,8.71
2024-02-21T12:34:17.682Z,8.72
2024-02-21T12:36:49.294Z,8.74
2024-02-21T12:39:16.198Z,8.83
2024-02-21T12:41:45.244Z,8.84
2024-02-21T12:44:12.476Z,8.76
2024-02-21T12:46:40.933Z,8.69
2024-02-21T12:49:10.231Z,8.69
2024-02-21T12:51:37.236Z,8.76
2024-02-21T12:54:06.660Z,8.68
2024-02-21T12:56:33.128Z,8.65
2024-02-21T12:58:59.577Z,8.62
2024-02-21T13:01:27.134Z,8.58
2024-02-21T13:03:55.018Z,8.57
2024-02-21T13:06:21.551Z,8.59
2024-02-21T13:08:48.087Z,8.63
2024-02-21T13:11:14.647Z,8.68
2024-02-21T13:13:41.216Z,8.71
2024-02-21T13:16:08.230Z,8.72
2024-02-21T13:18:36.205Z,8.72
2024-02-21T13:21:03.502Z,8.64
2024-02-21T13:23:29.933Z,8.70
2024-02-21T13:25:56.472Z,8.72
2024-02-21T13:28:22.974Z,8.71
2024-02-21T13:30:49.513Z,8.69
2024-02-21T13:33:16.099Z,8.72
2024-02-21T13:35:42.705Z,8.68
2024-02-21T13:38:10.998Z,8.68
2024-02-21T13:40:38.358Z,8.69
2024-02-21T13:43:04.790Z,8.77
2024-02-21T13:45:31.746Z,8.71
2024-02-21T13:48:00.014Z,8.73
2024-02-21T13:50:31.719Z,8.85
2024-02-21T13:52:58.122Z,8.76
2024-02-21T13:55:27.247Z,8.81
2024-02-21T13:57:53.925Z,8.82
2024-02-21T14:00:21.188Z,8.82
2024-02-21T14:02:47.901Z,8.87
2024-02-21T14:05:15.744Z,8.82
2024-02-21T14:07:43.103Z,8.86
2024-02-21T14:10:10.714Z,8.88
2024-02-21T14:12:37.367Z,8.88
2024-02-21T14:15:03.879Z,8.90
2024-02-21T14:17:32.328Z,8.85
2024-02-21T14:19:58.769Z,8.91
2024-02-21T14:22:25.407Z,8.96
2024-02-21T14:24:51.954Z,8.97
2024-02-21T14:27:18.470Z,8.92
2024-02-21T14:29:44.984Z,8.90
2024-02-21T14:32:14.035Z,8.91
2024-02-21T14:34:40.583Z,8.89
2024-02-21T14:37:07.065Z,8.93
2024-02-21T14:39:35.913Z,8.85
2024-02-21T14:42:02.415Z,8.89
2024-02-21T14:44:28.803Z,8.89
2024-02-21T14:46:55.319Z,8.91
2024-02-21T14:49:22.276Z,8.87
2024-02-21T14:51:48.906Z,8.87
2024-02-21T14:54:15.489Z,8.92
2024-02-21T14:56:41.968Z,8.89
2024-02-21T14:59:14.951Z,8.91
2024-02-21T15:01:45.120Z,8.88
2024-02-21T15:04:11.696Z,8.93
2024-02-21T15:06:38.697Z,8.91
2024-02-21T15:09:07.042Z,8.91
2024-02-21T15:11:33.673Z,8.93
2024-02-21T15:14:00.286Z,9.03
2024-02-21T15:16:26.818Z,8.94
2024-02-21T15:18:53.384Z,8.96
2024-02-21T15:21:19.997Z,9.02
2024-02-21T15:23:46.464Z,9.03
2024-02-21T15:26:14.795Z,9.05
2024-02-21T15:28:41.340Z,9.02
2024-02-21T15:31:08.036Z,9.07
2024-02-21T15:33:36.980Z,9.06
2024-02-21T15:36:07.984Z,9.06
2024-02-21T15:38:34.472Z,9.10
2024-02-21T15:41:00.906Z,9.02
2024-02-21T15:43:28.462Z,8.93
2024-02-21T15:45:55.629Z,8.95
2024-02-21T15:48:26.047Z,8.88
2024-02-21T15:50:52.886Z,8.92
2024-02-21T15:53:19.390Z,8.99
2024-02-21T15:55:47.099Z,8.91
2024-02-21T15:58:14.331Z,8.92
2024-02-21T16:00:40.802Z,8.88
2024-02-21T16:03:07.587Z,8.83
2024-02-21T16:05:34.085Z,8.83
2024-02-21T16:08:01.501Z,8.80
2024-02-21T16:10:28.026Z,8.80
2024-02-21T16:12:54.438Z,8.76
2024-02-21T16:15:20.895Z,8.75
2024-02-21T16:17:48.340Z,8.64
2024-02-21T16:20:16.472Z,8.58
2024-02-21T16:22:43.281Z,8.55
2024-02-21T16:25:10.169Z,8.48
2024-02-21T16:27:37.050Z,8.42
2024-02-21T16:30:07.045Z,8.37
2024-02-21T16:32:35.867Z,8.34
2024-02-21T16:35:02.557Z,8.29
2024-02-21T16:37:29.233Z,8.20
2024-02-21T16:39:55.698Z,8.16
2024-02-21T16:42:22.148Z,8.07
2024-02-21T16:44:49.567Z,8.02
2024-02-21T16:47:17.831Z,7.97
2024-02-21T16:49:44.319Z,7.97
2024-02-21T16:52:10.838Z,8.04
2024-02-21T16:54:37.583Z,8.03
2024-02-21T16:57:04.197Z,8.02
2024-02-21T16:59:30.813Z,7.98
2024-02-21T17:01:57.301Z,7.99
2024-02-21T17:04:24.306Z,7.95
2024-02-21T17:06:51.373Z,7.94
2024-02-21T17:09:18.865Z,7.99
2024-02-21T17:11:45.949Z,7.89
2024-02-21T17:14:13.556Z,7.85
2024-02-21T17:16:40.095Z,7.81
2024-02-21T17:19:06.726Z,7.79
2024-02-21T17:21:33.588Z,7.73
2024-02-21T17:24:00.016Z,7.65
2024-02-21T17:26:27.333Z,7.58
2024-02-21T17:28:54.528Z,7.50
2024-02-21T17:31:21.240Z,7.43
2024-02-21T17:33:47.753Z,7.37
2024-02-21T17:36:14.547Z,7.29
2024-02-21T17:38:43.319Z,7.25
2024-02-21T17:41:09.934Z,7.18
2024-02-21T17:43:36.516Z,7.15
2024-02-21T17:46:03.958Z,7.10
2024-02-21T17:48:30.696Z,7.05
2024-02-21T17:50:57.379Z,7.02
2024-02-21T17:53:23.944Z,7.01
2024-02-21T17:55:50.530Z,6.94
2024-02-21T17:58:17.180Z,6.90
2024-02-21T18:00:46.306Z,6.85
2024-02-21T18:03:14.248Z,6.79
2024-02-21T18:05:40.842Z,6.76
2024-02-21T18:08:08.837Z,6.74
2024-02-21T18:10:35.400Z,6.72
2024-02-21T18:13:03.880Z,6.78
2024-02-21T18:15:30.366Z,6.86
2024-02-21T18:17:58.286Z,6.89
2024-02-21T18:20:25.661Z,6.91
2024-02-21T18:22:54.952Z,6.89
2024-02-21T18:25:23.066Z,6.87
2024-02-21T18:27:49.557Z,6.87
2024-02-21T18:30:16.316Z,6.86
2024-02-21T18:32:42.966Z,6.84
2024-02-21T18:35:09.722Z,6.84
2024-02-21T18:37:36.395Z,6.84
2024-02-21T18:40:10.748Z,6.86
2024-02-21T18:42:37.176Z,6.87
2024-02-21T18:45:03.971Z,6.96
2024-02-21T18:47:30.616Z,7.03
2024-02-21T18:49:57.158Z,7.06
2024-02-21T18:52:23.735Z,7.10
2024-02-21T18:54:50.371Z,7.14
2024-02-21T18:57:18.142Z,7.16
2024-02-21T18:59:45.333Z,7.17
2024-02-21T19:02:11.898Z,7.19
2024-02-21T19:04:38.947Z,7.23
2024-02-21T19:07:05.677Z,7.30
2024-02-21T19:09:32.084Z,7.27
2024-02-21T19:11:58.606Z,7.25
2024-02-21T19:14:25.076Z,7.22
2024-02-21T19:16:53.222Z,7.21
2024-02-21T19:19:19.691Z,7.21
2024-02-21T19:21:46.266Z,7.18
2024-02-21T19:24:12.774Z,7.20
2024-02-21T19:26:40.203Z,7.24
2024-02-21T19:29:07.373Z,7.22
2024-02-21T19:31:33.937Z,7.22
2024-02-21T19:34:00.562Z,7.30
2024-02-21T19:36:27.099Z,7.30
2024-02-21T19:38:53.675Z,7.28
2024-02-21T19:41:20.377Z,7.31
2024-02-21T19:43:47.696Z,7.29
2024-02-21T19:46:14.280Z,7.22
2024-02-21T19:48:41.894Z,7.19
2024-02-21T19:51:09.056Z,7.24
2024-02-21T19:53:36.234Z,7.22
2024-02-21T19:56:02.894Z,7.24
2024-02-21T19:58:29.640Z,7.21
2024-02-21T20:00:56.104Z,7.20
2024-02-21T20:03:26.572Z,7.19
2024-02-21T20:05:53.315Z,7.16
2024-02-21T20:08:20.012Z,7.14
2024-02-21T20:10:46.783Z,7.13
2024-02-21T20:13:14.319Z,7.11
2024-02-21T20:15:40.889Z,7.12
2024-02-21T20:18:07.451Z,7.14
2024-02-21T20:20:34.939Z,7.11
2024-02-21T20:23:02.517Z,7.12
2024-02-21T20:25:29.079Z,7.10
2024-02-21T20:27:56.013Z,7.08
2024-02-21T20:30:22.476Z,7.09
2024-02-21T20:32:52.230Z,7.12
2024-02-21T20:35:19.004Z,7.10
2024-02-21T20:37:47.554Z,7.12
2024-02-21T20:40:14.360Z,7.12
2024-02-21T20:42:41.753Z,7.09
2024-02-21T20:45:09.915Z,7.09
2024-02-21T20:47:37.300Z,7.08
2024-02-21T20:50:04.530Z,7.08
2024-02-21T20:52:31.310Z,7.10
2024-02-21T20:54:57.751Z,7.09
2024-02-21T20:57:24.280Z,7.15
2024-02-21T20:59:50.766Z,7.13
2024-02-21T21:02:17.664Z,7.09
2024-02-21T21:04:44.348Z,7.11
2024-02-21T21:07:11.496Z,7.10
2024-02-21T21:09:40.253Z,7.13
2024-02-21T21:12:07.515Z,7.18
2024-02-21T21:14:34.203Z,7.19
2024-02-21T21:17:04.536Z,7.23
2024-02-21T21:19:34.212Z,7.28
2024-02-21T21:22:01.891Z,7.26
2024-02-21T21:24:28.622Z,7.31
2024-02-21T21:26:55.165Z,7.31
2024-02-21T21:29:22.374Z,7.32
2024-02-21T21:31:49.161Z,7.32
2024-02-21T21:34:16.034Z,7.30
2024-02-21T21:36:42.728Z,7.31
2024-02-21T21:39:09.255Z,7.39
2024-02-21T21:41:36.213Z,7.36
2024-02-21T21:44:02.822Z,7.39
2024-02-21T21:46:29.605Z,7.39
2024-02-21T21:48:56.119Z,7.37
2024-02-21T21:51:24.782Z,7.38
2024-02-21T21:53:51.363Z,7.37
2024-02-21T21:56:17.935Z,7.37
2024-02-21T21:58:46.996Z,7.35
2024-02-21T22:01:14.864Z,7.40
2024-02-21T22:03:41.428Z,7.44
2024-02-21T22:06:08.213Z,7.43
2024-02-21T22:08:34.806Z,7.44
2024-02-21T22:11:01.282Z,7.45
2024-02-21T22:13:27.782Z,7.46
2024-02-21T22:15:54.215Z,7.43
2024-02-21T22:18:20.841Z,7.41
2024-02-21T22:20:47.270Z,7.41
2024-02-21T22:23:14.129Z,7.38
2024-02-21T22:25:41.795Z,7.40
2024-02-21T22:28:08.875Z,7.34
2024-02-21T22:30:35.962Z,7.33
2024-02-21T22:33:02.795Z,7.26
2024-02-21T22:35:29.336Z,7.27
2024-02-21T22:37:55.910Z,7.25
2024-02-21T22:40:22.519Z,7.29
2024-02-21T22:42:48.958Z,7.34
2024-02-21T22:45:17.702Z,7.36
2024-02-21T22:47:44.226Z,7.37
2024-02-21T22:50:10.868Z,7.35
2024-02-21T22:52:37.392Z,7.35
2024-02-21T22:55:04.285Z,7.38
2024-02-21T22:57:30.667Z,7.37
2024-02-21T22:59:57.093Z,7.37
2024-02-21T23:02:23.609Z,7.37
2024-02-21T23:04:50.162Z,7.33
2024-02-21T23:07:17.200Z,7.36
2024-02-21T23:09:43.626Z,7.36
2024-02-21T23:12:10.159Z,7.34
2024-02-21T23:14:36.973Z,7.34
2024-02-21T23:17:03.542Z,7.35
2024-02-21T23:19:30.130Z,7.33
2024-02-21T23:21:56.747Z,7.30
2024-02-21T23:24:23.151Z,7.28
2024-02-21T23:26:49.539Z,7.29
2024-02-21T23:29:16.014Z,7.30
2024-02-21T23:31:42.994Z,7.29
2024-02-21T23:34:10.416Z,7.33
2024-02-21T23:36:37.025Z,7.34
2024-02-21T23:39:03.690Z,7.35
2024-02-21T23:41:30.132Z,7.38
2024-02-21T23:44:00.120Z,7.42
2024-02-21T23:46:27.412Z,7.46
2024-02-21T23:48:59.320Z,7.48
2024-02-21T23:51:25.884Z,7.51
2024-02-21T23:53:52.296Z,7.56
2024-02-21T23:56:18.774Z,7.59
2024-02-21T23:58:45.303Z,7.55
